createdAt,value
2023-03-22T05:26:09.207Z,100.00
2023-03-22T05:30:13.592Z,100.00
2023-03-22T05:34:17.608Z,100.00
2023-03-22T05:38:23.146Z,100.00
2023-03-22T05:42:26.780Z,100.00
2023-03-22T05:46:30.318Z,100.00
2023-03-22T05:50:36.001Z,100.00
2023-03-22T05:54:39.996Z,100.00
2023-03-22T05:58:45.145Z,100.00
2023-03-22T06:02:49.698Z,100.00
2023-03-22T06:06:54.142Z,100.00
2023-03-22T06:10:58.514Z,100.00
2023-03-22T06:15:02.515Z,100.00
2023-03-22T06:19:08.396Z,100.00
2023-03-22T06:23:11.793Z,100.00
2023-03-22T06:27:15.118Z,100.00
2023-03-22T06:31:39.360Z,100.00
2023-03-22T06:35:42.275Z,100.00
2023-03-22T06:39:46.744Z,100.00
2023-03-22T06:43:50.225Z,98.86
2023-03-22T06:47:57.780Z,97.14
2023-03-22T06:52:01.530Z,96.79
2023-03-22T06:56:05.960Z,94.23
2023-03-22T07:00:13.274Z,91.49
2023-03-22T07:04:21.086Z,89.35
2023-03-22T07:08:26.095Z,87.86
2023-03-22T07:12:32.521Z,87.07
2023-03-22T07:17:01.485Z,83.15
2023-03-22T07:21:24.415Z,83.69
2023-03-22T07:26:07.471Z,81.73
2023-03-22T07:30:38.899Z,79.55
2023-03-22T07:34:51.702Z,79.82
2023-03-22T07:39:00.387Z,77.33
2023-03-22T07:43:17.798Z,78.90
2023-03-22T07:52:34.770Z,76.57
2023-03-22T07:57:08.837Z,74.04
2023-03-22T08:01:18.450Z,71.82
2023-03-22T08:05:29.901Z,70.58
2023-03-22T08:09:47.278Z,69.33
2023-03-22T08:14:27.449Z,68.69
2023-03-22T08:19:13.143Z,65.71
2023-03-22T08:23:42.045Z,63.52
2023-03-22T08:28:14.514Z,63.68
2023-03-22T08:32:41.771Z,63.76
2023-03-22T08:36:50.771Z,63.53
2023-03-22T08:41:55.336Z,61.66
2023-03-22T08:47:25.668Z,60.67
2023-03-22T08:56:33.709Z,57.94
2023-03-22T09:10:20.843Z,54.68
2023-03-22T09:14:25.090Z,52.68
2023-03-22T09:19:34.049Z,51.91
2023-03-22T09:29:18.494Z,50.45
2023-03-22T09:33:44.830Z,51.84
2023-03-22T09:37:55.132Z,50.95
2023-03-22T09:42:08.999Z,52.49
2023-03-22T09:46:44.919Z,52.49
2023-03-22T09:50:53.028Z,49.99
2023-03-22T09:55:42.384Z,49.71
2023-03-22T10:00:23.356Z,48.50
2023-03-22T10:04:51.240Z,49.10
2023-03-22T10:09:10.692Z,46.37
2023-03-22T10:14:11.926Z,46.15
2023-03-22T10:18:55.728Z,45.74
2023-03-22T10:23:02.326Z,43.04
2023-03-22T10:32:22.187Z,43.77
2023-03-22T10:36:40.890Z,43.22
2023-03-22T10:40:53.746Z,44.37
2023-03-22T10:45:22.696Z,44.54
2023-03-22T10:49:56.365Z,43.10
2023-03-22T10:54:27.982Z,43.06
2023-03-22T10:58:51.535Z,41.98
2023-03-22T11:03:00.353Z,40.34
2023-03-22T11:07:03.647Z,37.84
2023-03-22T11:16:05.796Z,38.12
2023-03-22T11:20:24.161Z,37.94
2023-03-22T11:24:47.204Z,36.16
2023-03-22T11:29:30.376Z,35.35
2023-03-22T11:33:39.254Z,38.87
2023-03-22T11:38:07.360Z,36.35
2023-03-22T11:42:19.915Z,36.19
2023-03-22T11:51:35.712Z,35.95
2023-03-22T11:56:33.688Z,37.95
2023-03-22T12:01:03.314Z,39.56
2023-03-22T12:10:51.912Z,42.73
2023-03-22T12:15:42.775Z,44.95
2023-03-22T12:20:15.932Z,44.75
2023-03-22T12:24:43.157Z,45.06
2023-03-22T12:28:47.304Z,44.69
2023-03-22T12:33:33.169Z,47.66
2023-03-22T12:37:41.038Z,46.82
2023-03-22T12:41:49.486Z,47.95
2023-03-22T12:45:58.394Z,50.43
2023-03-22T12:50:13.352Z,51.08
2023-03-22T12:54:23.838Z,50.95
2023-03-22T12:58:45.359Z,51.52
2023-03-22T13:03:59.985Z,52.24
2023-03-22T13:08:23.245Z,53.09
2023-03-22T13:17:02.204Z,51.76
2023-03-22T13:21:19.346Z,51.94
2023-03-22T13:25:37.728Z,50.74
2023-03-22T13:29:42.315Z,49.02
2023-03-22T13:33:54.487Z,47.58
2023-03-22T13:38:14.124Z,44.95
2023-03-22T13:42:23.034Z,45.64
2023-03-22T13:46:45.427Z,45.95
2023-03-22T13:51:08.271Z,46.77
2023-03-22T13:55:35.269Z,44.42
2023-03-22T14:00:14.403Z,46.07
2023-03-22T14:04:29.802Z,46.56
2023-03-22T14:08:35.051Z,46.56
2023-03-22T14:12:51.308Z,46.89
2023-03-22T14:17:27.207Z,46.16
